sensor_id;sensor_type;location;lat;lon;timestamp;pressure;altitude;pressure_sealevel;temperature;humidity
55592;BME280;41454;53.396;-1.510;2022-12-07T00:00:50;101052.26;;;0.82;100.00
55592;BME280;41454;53.396;-1.510;2022-12-07T00:03:17;101051.03;;;1.51;100.00
55592;BME280;41454;53.396;-1.510;2022-12-07T00:05:45;101052.15;;;0.61;100.00
55592;BME280;41454;53.396;-1.510;2022-12-07T00:08:12;101053.74;;;1.29;100.00
55592;BME280;41454;53.396;-1.510;2022-12-07T00:10:39;101049.68;;;1.28;100.00
55592;BME280;41454;53.396;-1.510;2022-12-07T00:13:06;101049.92;;;1.80;100.00
55592;BME280;41454;53.396;-1.510;2022-12-07T00:15:34;101053.30;;;1.00;100.00
55592;BME280;41454;53.396;-1.510;2022-12-07T00:18:01;101050.86;;;1.94;100.00
55592;BME280;41454;53.396;-1.510;2022-12-07T00:20:29;101051.87;;;1.95;100.00
55592;BME280;41454;53.396;-1.510;2022-12-07T00:22:56;101043.19;;;2.50;100.00
55592;BME280;41454;53.396;-1.510;2022-12-07T00:25:23;101042.21;;;1.83;100.00
55592;BME280;41454;53.396;-1.510;2022-12-07T00:27:52;101040.10;;;1.89;100.00
55592;BME280;41454;53.396;-1.510;2022-12-07T00:30:19;101042.54;;;1.16;100.00
55592;BME280;41454;53.396;-1.510;2022-12-07T00:32:46;101044.78;;;1.75;100.00
55592;BME280;41454;53.396;-1.510;2022-12-07T00:35:14;101043.72;;;0.87;100.00
55592;BME280;41454;53.396;-1.510;2022-12-07T00:37:41;101050.08;;;0.89;100.00
55592;BME280;41454;53.396;-1.510;2022-12-07T00:40:09;101049.34;;;1.03;100.00
55592;BME280;41454;53.396;-1.510;2022-12-07T00:42:36;101039.52;;;1.19;100.00
55592;BME280;41454;53.396;-1.510;2022-12-07T00:45:03;101039.34;;;1.23;100.00
55592;BME280;41454;53.396;-1.510;2022-12-07T00:47:30;101036.03;;;0.74;100.00
55592;BME280;41454;53.396;-1.510;2022-12-07T00:49:57;101034.84;;;0.68;100.00
55592;BME280;41454;53.396;-1.510;2022-12-07T00:52:25;101038.20;;;0.92;100.00
55592;BME280;41454;53.396;-1.510;2022-12-07T00:54:52;101037.46;;;1.00;100.00
55592;BME280;41454;53.396;-1.510;2022-12-07T00:57:20;101036.83;;;0.86;100.00
55592;BME280;41454;53.396;-1.510;2022-12-07T00:59:48;101038.08;;;1.21;100.00
55592;BME280;41454;53.396;-1.510;2022-12-07T01:02:15;101036.25;;;0.96;100.00
55592;BME280;41454;53.396;-1.510;2022-12-07T01:04:43;101031.53;;;1.18;100.00
55592;BME280;41454;53.396;-1.510;2022-12-07T01:07:09;101019.09;;;1.46;100.00
55592;BME280;41454;53.396;-1.510;2022-12-07T01:09:36;101020.88;;;1.38;100.00
55592;BME280;41454;53.396;-1.510;2022-12-07T01:12:03;101022.04;;;0.58;100.00
55592;BME280;41454;53.396;-1.510;2022-12-07T01:14:30;101025.54;;;0.84;100.00
55592;BME280;41454;53.396;-1.510;2022-12-07T01:16:58;101022.63;;;1.12;100.00
55592;BME280;41454;53.396;-1.510;2022-12-07T01:19:24;101019.11;;;1.37;100.00
55592;BME280;41454;53.396;-1.510;2022-12-07T01:21:51;101025.77;;;0.71;100.00
55592;BME280;41454;53.396;-1.510;2022-12-07T01:24:18;101021.30;;;1.09;100.00
55592;BME280;41454;53.396;-1.510;2022-12-07T01:26:45;101015.74;;;0.29;100.00
55592;BME280;41454;53.396;-1.510;2022-12-07T01:29:11;101009.13;;;0.52;100.00
55592;BME280;41454;53.396;-1.510;2022-12-07T01:31:38;101010.19;;;0.42;100.00
55592;BME280;41454;53.396;-1.510;2022-12-07T01:34:06;101007.72;;;0.42;100.00
55592;BME280;41454;53.396;-1.510;2022-12-07T01:36:35;101008.13;;;0.62;100.00
55592;BME280;41454;53.396;-1.510;2022-12-07T01:39:05;101008.44;;;1.09;100.00
55592;BME280;41454;53.396;-1.510;2022-12-07T01:41:34;101010.86;;;0.39;100.00
55592;BME280;41454;53.396;-1.510;2022-12-07T01:44:16;101006.43;;;0.64;100.00
55592;BME280;41454;53.396;-1.510;2022-12-07T01:46:45;101007.27;;;1.42;100.00
55592;BME280;41454;53.396;-1.510;2022-12-07T01:49:16;101002.68;;;1.67;100.00
55592;BME280;41454;53.396;-1.510;2022-12-07T01:51:46;100998.63;;;1.13;100.00
55592;BME280;41454;53.396;-1.510;2022-12-07T01:54:15;101000.89;;;1.66;100.00
55592;BME280;41454;53.396;-1.510;2022-12-07T01:56:47;100998.53;;;1.89;100.00
55592;BME280;41454;53.396;-1.510;2022-12-07T01:59:16;100998.04;;;1.60;100.00
55592;BME280;41454;53.396;-1.510;2022-12-07T02:01:44;100997.49;;;1.72;100.00
55592;BME280;41454;53.396;-1.510;2022-12-07T02:04:12;100998.63;;;1.54;100.00
55592;BME280;41454;53.396;-1.510;2022-12-07T02:06:39;101000.61;;;1.32;100.00
55592;BME280;41454;53.396;-1.510;2022-12-07T02:09:07;101002.90;;;1.89;100.00
55592;BME280;41454;53.396;-1.510;2022-12-07T02:11:34;101000.17;;;1.75;100.00
55592;BME280;41454;53.396;-1.510;2022-12-07T02:14:02;101001.63;;;1.97;100.00
55592;BME280;41454;53.396;-1.510;2022-12-07T02:16:34;101003.00;;;1.03;100.00
55592;BME280;41454;53.396;-1.510;2022-12-07T02:19:30;101000.18;;;2.46;100.00
55592;BME280;41454;53.396;-1.510;2022-12-07T02:22:22;101001.46;;;1.30;100.00
55592;BME280;41454;53.396;-1.510;2022-12-07T02:24:55;100992.59;;;1.33;100.00
55592;BME280;41454;53.396;-1.510;2022-12-07T02:27:37;100988.75;;;1.22;100.00
55592;BME280;41454;53.396;-1.510;2022-12-07T02:30:07;100990.92;;;0.95;100.00
55592;BME280;41454;53.396;-1.510;2022-12-07T02:32:44;100990.06;;;1.39;100.00
55592;BME280;41454;53.396;-1.510;2022-12-07T02:35:18;100985.26;;;1.57;100.00
55592;BME280;41454;53.396;-1.510;2022-12-07T02:37:55;100985.84;;;1.67;100.00
55592;BME280;41454;53.396;-1.510;2022-12-07T02:40:31;100983.18;;;1.87;100.00
55592;BME280;41454;53.396;-1.510;2022-12-07T02:43:04;100986.76;;;1.66;100.00
55592;BME280;41454;53.396;-1.510;2022-12-07T02:45:35;100978.71;;;2.30;100.00
55592;BME280;41454;53.396;-1.510;2022-12-07T02:48:05;100975.24;;;1.60;100.00
55592;BME280;41454;53.396;-1.510;2022-12-07T02:50:34;100976.82;;;1.87;100.00
55592;BME280;41454;53.396;-1.510;2022-12-07T02:53:01;100977.59;;;1.40;100.00
55592;BME280;41454;53.396;-1.510;2022-12-07T02:55:34;100974.42;;;1.97;100.00
55592;BME280;41454;53.396;-1.510;2022-12-07T02:58:20;100970.80;;;1.70;100.00
55592;BME280;41454;53.396;-1.510;2022-12-07T03:00:58;100965.91;;;1.36;100.00
55592;BME280;41454;53.396;-1.510;2022-12-07T03:03:31;100962.45;;;1.09;100.00
55592;BME280;41454;53.396;-1.510;2022-12-07T03:06:07;100960.38;;;1.24;100.00
55592;BME280;41454;53.396;-1.510;2022-12-07T03:08:44;100957.73;;;1.09;100.00
55592;BME280;41454;53.396;-1.510;2022-12-07T03:11:17;100962.46;;;1.02;100.00
55592;BME280;41454;53.396;-1.510;2022-12-07T03:13:55;100957.57;;;1.31;100.00
55592;BME280;41454;53.396;-1.510;2022-12-07T03:16:28;100958.33;;;0.92;100.00
55592;BME280;41454;53.396;-1.510;2022-12-07T03:19:00;100958.14;;;1.28;100.00
55592;BME280;41454;53.396;-1.510;2022-12-07T03:21:32;100951.52;;;1.78;100.00
55592;BME280;41454;53.396;-1.510;2022-12-07T03:24:05;100950.32;;;1.41;100.00
55592;BME280;41454;53.396;-1.510;2022-12-07T03:26:38;100948.76;;;1.35;100.00
55592;BME280;41454;53.396;-1.510;2022-12-07T03:29:20;100949.70;;;1.72;100.00
55592;BME280;41454;53.396;-1.510;2022-12-07T03:31:57;100951.13;;;1.24;100.00
55592;BME280;41454;53.396;-1.510;2022-12-07T03:34:29;100954.77;;;0.46;100.00
55592;BME280;41454;53.396;-1.510;2022-12-07T03:37:02;100950.24;;;1.33;100.00
55592;BME280;41454;53.396;-1.510;2022-12-07T03:39:36;100951.39;;;0.81;100.00
55592;BME280;41454;53.396;-1.510;2022-12-07T03:42:07;100948.97;;;0.64;100.00
55592;BME280;41454;53.396;-1.510;2022-12-07T03:44:36;100943.51;;;0.04;100.00
55592;BME280;41454;53.396;-1.510;2022-12-07T03:47:09;100936.88;;;0.88;100.00
55592;BME280;41454;53.396;-1.510;2022-12-07T03:49:43;100934.44;;;0.89;100.00
55592;BME280;41454;53.396;-1.510;2022-12-07T03:52:17;100934.42;;;0.94;100.00
55592;BME280;41454;53.396;-1.510;2022-12-07T03:54:48;100933.85;;;0.87;100.00
55592;BME280;41454;53.396;-1.510;2022-12-07T03:57:19;100936.87;;;0.33;100.00
55592;BME280;41454;53.396;-1.510;2022-12-07T03:59:48;100931.12;;;0.60;100.00
55592;BME280;41454;53.396;-1.510;2022-12-07T04:02:15;100929.14;;;0.37;100.00
55592;BME280;41454;53.396;-1.510;2022-12-07T04:04:43;100927.42;;;0.82;100.00
55592;BME280;41454;53.396;-1.510;2022-12-07T04:07:11;100930.89;;;0.77;100.00
55592;BME280;41454;53.396;-1.510;2022-12-07T04:09:38;100923.43;;;1.31;100.00
55592;BME280;41454;53.396;-1.510;2022-12-07T04:12:06;100918.36;;;1.07;100.00
55592;BME280;41454;53.396;-1.510;2022-12-07T04:14:33;100919.85;;;1.24;100.00
55592;BME280;41454;53.396;-1.510;2022-12-07T04:17:01;100920.72;;;0.85;100.00
55592;BME280;41454;53.396;-1.510;2022-12-07T04:19:30;100916.49;;;1.88;100.00
55592;BME280;41454;53.396;-1.510;2022-12-07T04:22:00;100918.49;;;1.55;100.00
55592;BME280;41454;53.396;-1.510;2022-12-07T04:24:28;100915.81;;;2.20;100.00
55592;BME280;41454;53.396;-1.510;2022-12-07T04:26:55;100912.15;;;1.83;100.00
55592;BME280;41454;53.396;-1.510;2022-12-07T04:29:23;100914.60;;;1.59;100.00
55592;BME280;41454;53.396;-1.510;2022-12-07T04:31:50;100909.76;;;2.11;100.00
55592;BME280;41454;53.396;-1.510;2022-12-07T04:34:18;100909.89;;;1.77;100.00
55592;BME280;41454;53.396;-1.510;2022-12-07T04:36:47;100910.71;;;1.39;100.00
55592;BME280;41454;53.396;-1.510;2022-12-07T04:39:19;100909.06;;;0.69;100.00
55592;BME280;41454;53.396;-1.510;2022-12-07T04:41:47;100906.22;;;1.43;100.00
55592;BME280;41454;53.396;-1.510;2022-12-07T04:44:15;100909.19;;;0.87;100.00
55592;BME280;41454;53.396;-1.510;2022-12-07T04:46:42;100907.12;;;0.10;100.00
55592;BME280;41454;53.396;-1.510;2022-12-07T04:49:10;100903.52;;;0.16;100.00
55592;BME280;41454;53.396;-1.510;2022-12-07T04:51:38;100903.51;;;0.15;100.00
55592;BME280;41454;53.396;-1.510;2022-12-07T04:54:05;100901.77;;;0.57;100.00
55592;BME280;41454;53.396;-1.510;2022-12-07T04:56:33;100900.96;;;0.17;100.00
55592;BME280;41454;53.396;-1.510;2022-12-07T04:59:00;100904.27;;;-0.04;100.00
55592;BME280;41454;53.396;-1.510;2022-12-07T05:01:27;100902.91;;;0.13;100.00
55592;BME280;41454;53.396;-1.510;2022-12-07T05:03:56;100900.83;;;0.23;100.00
55592;BME280;41454;53.396;-1.510;2022-12-07T05:06:23;100899.48;;;-0.12;100.00
55592;BME280;41454;53.396;-1.510;2022-12-07T05:08:50;100899.90;;;-0.17;100.00
55592;BME280;41454;53.396;-1.510;2022-12-07T05:11:18;100896.46;;;-0.35;100.00
55592;BME280;41454;53.396;-1.510;2022-12-07T05:13:45;100903.23;;;-0.15;100.00
55592;BME280;41454;53.396;-1.510;2022-12-07T05:16:12;100906.36;;;-0.41;100.00
55592;BME280;41454;53.396;-1.510;2022-12-07T05:18:39;100903.45;;;-0.89;100.00
55592;BME280;41454;53.396;-1.510;2022-12-07T05:21:06;100906.73;;;-0.62;100.00
55592;BME280;41454;53.396;-1.510;2022-12-07T05:23:32;100906.51;;;-0.67;100.00
55592;BME280;41454;53.396;-1.510;2022-12-07T05:25:59;100910.50;;;-0.42;100.00
55592;BME280;41454;53.396;-1.510;2022-12-07T05:28:27;100909.09;;;-0.24;100.00
55592;BME280;41454;53.396;-1.510;2022-12-07T05:30:53;100905.57;;;-0.10;100.00
55592;BME280;41454;53.396;-1.510;2022-12-07T05:33:20;100908.84;;;-0.36;100.00
55592;BME280;41454;53.396;-1.510;2022-12-07T05:35:47;100902.67;;;0.18;100.00
55592;BME280;41454;53.396;-1.510;2022-12-07T05:38:14;100905.28;;;0.29;100.00
55592;BME280;41454;53.396;-1.510;2022-12-07T05:40:40;100903.04;;;0.63;100.00
55592;BME280;41454;53.396;-1.510;2022-12-07T05:43:08;100899.27;;;0.69;100.00
55592;BME280;41454;53.396;-1.510;2022-12-07T05:45:36;100900.91;;;-0.01;100.00
55592;BME280;41454;53.396;-1.510;2022-12-07T05:48:03;100901.95;;;0.11;100.00
55592;BME280;41454;53.396;-1.510;2022-12-07T05:50:32;100906.16;;;-0.12;100.00
55592;BME280;41454;53.396;-1.510;2022-12-07T05:52:59;100903.16;;;0.06;100.00
55592;BME280;41454;53.396;-1.510;2022-12-07T05:55:27;100903.46;;;0.03;100.00
55592;BME280;41454;53.396;-1.510;2022-12-07T05:57:54;100901.82;;;-0.31;100.00
55592;BME280;41454;53.396;-1.510;2022-12-07T06:00:22;100895.97;;;0.31;100.00
55592;BME280;41454;53.396;-1.510;2022-12-07T06:02:49;100900.39;;;-0.05;100.00
55592;BME280;41454;53.396;-1.510;2022-12-07T06:05:17;100899.03;;;-0.13;100.00
55592;BME280;41454;53.396;-1.510;2022-12-07T06:07:44;100900.10;;;-0.06;100.00
55592;BME280;41454;53.396;-1.510;2022-12-07T06:10:11;100898.01;;;-0.63;100.00
55592;BME280;41454;53.396;-1.510;2022-12-07T06:12:38;100897.37;;;0.02;100.00
55592;BME280;41454;53.396;-1.510;2022-12-07T06:15:06;100895.28;;;-0.30;100.00
55592;BME280;41454;53.396;-1.510;2022-12-07T06:17:33;100894.30;;;-0.53;100.00
55592;BME280;41454;53.396;-1.510;2022-12-07T06:20:00;100893.90;;;-0.55;100.00
55592;BME280;41454;53.396;-1.510;2022-12-07T06:22:28;100894.73;;;-0.48;100.00
55592;BME280;41454;53.396;-1.510;2022-12-07T06:24:56;100893.03;;;-0.36;100.00
55592;BME280;41454;53.396;-1.510;2022-12-07T06:27:23;100893.02;;;-0.08;100.00
55592;BME280;41454;53.396;-1.510;2022-12-07T06:29:49;100888.83;;;0.19;100.00
55592;BME280;41454;53.396;-1.510;2022-12-07T06:32:16;100895.83;;;0.11;100.00
55592;BME280;41454;53.396;-1.510;2022-12-07T06:34:43;100888.39;;;-0.21;100.00
55592;BME280;41454;53.396;-1.510;2022-12-07T06:37:11;100889.45;;;-0.03;100.00
55592;BME280;41454;53.396;-1.510;2022-12-07T06:39:38;100891.69;;;0.18;100.00
55592;BME280;41454;53.396;-1.510;2022-12-07T06:42:05;100888.38;;;0.14;100.00
55592;BME280;41454;53.396;-1.510;2022-12-07T06:44:33;100887.22;;;0.36;100.00
55592;BME280;41454;53.396;-1.510;2022-12-07T06:46:59;100888.77;;;0.32;100.00
55592;BME280;41454;53.396;-1.510;2022-12-07T06:49:26;100887.70;;;-0.20;100.00
55592;BME280;41454;53.396;-1.510;2022-12-07T06:51:53;100886.88;;;-0.12;100.00
55592;BME280;41454;53.396;-1.510;2022-12-07T06:54:21;100885.15;;;-0.27;100.00
55592;BME280;41454;53.396;-1.510;2022-12-07T06:56:48;100886.04;;;-0.12;100.00
55592;BME280;41454;53.396;-1.510;2022-12-07T06:59:15;100886.54;;;-0.60;100.00
55592;BME280;41454;53.396;-1.510;2022-12-07T07:01:42;100883.84;;;-0.53;100.00
55592;BME280;41454;53.396;-1.510;2022-12-07T07:04:10;100883.13;;;-0.72;100.00
55592;BME280;41454;53.396;-1.510;2022-12-07T07:06:37;100883.01;;;-0.81;100.00
55592;BME280;41454;53.396;-1.510;2022-12-07T07:09:03;100884.62;;;-1.05;100.00
55592;BME280;41454;53.396;-1.510;2022-12-07T07:11:31;100876.29;;;-0.30;100.00
55592;BME280;41454;53.396;-1.510;2022-12-07T07:13:59;100880.59;;;-0.46;100.00
55592;BME280;41454;53.396;-1.510;2022-12-07T07:16:26;100879.86;;;-0.35;100.00
55592;BME280;41454;53.396;-1.510;2022-12-07T07:18:53;100874.79;;;-0.48;100.00
55592;BME280;41454;53.396;-1.510;2022-12-07T07:21:20;100873.06;;;-0.47;100.00
55592;BME280;41454;53.396;-1.510;2022-12-07T07:23:46;100879.28;;;-0.49;100.00
55592;BME280;41454;53.396;-1.510;2022-12-07T07:26:13;100874.26;;;-0.23;100.00
55592;BME280;41454;53.396;-1.510;2022-12-07T07:28:41;100870.17;;;0.33;100.00
55592;BME280;41454;53.396;-1.510;2022-12-07T07:31:10;100866.45;;;0.28;100.00
55592;BME280;41454;53.396;-1.510;2022-12-07T07:33:37;100860.97;;;-0.18;100.00
55592;BME280;41454;53.396;-1.510;2022-12-07T07:36:04;100861.17;;;0.37;100.00
55592;BME280;41454;53.396;-1.510;2022-12-07T07:38:32;100859.62;;;1.01;100.00
55592;BME280;41454;53.396;-1.510;2022-12-07T07:41:00;100857.22;;;0.58;100.00
55592;BME280;41454;53.396;-1.510;2022-12-07T07:43:26;100858.87;;;0.46;100.00
55592;BME280;41454;53.396;-1.510;2022-12-07T07:45:54;100858.31;;;0.61;100.00
55592;BME280;41454;53.396;-1.510;2022-12-07T07:48:21;100858.67;;;0.71;100.00
55592;BME280;41454;53.396;-1.510;2022-12-07T07:50:48;100854.30;;;0.29;100.00
55592;BME280;41454;53.396;-1.510;2022-12-07T07:53:16;100854.62;;;0.19;100.00
55592;BME280;41454;53.396;-1.510;2022-12-07T07:55:50;100854.59;;;-0.03;100.00
55592;BME280;41454;53.396;-1.510;2022-12-07T07:58:17;100852.80;;;-0.08;100.00
55592;BME280;41454;53.396;-1.510;2022-12-07T08:00:45;100857.13;;;-0.13;100.00
55592;BME280;41454;53.396;-1.510;2022-12-07T08:03:11;100855.80;;;-0.18;100.00
55592;BME280;41454;53.396;-1.510;2022-12-07T08:05:38;100857.10;;;-0.54;100.00
55592;BME280;41454;53.396;-1.510;2022-12-07T08:08:06;100858.11;;;-0.31;100.00
55592;BME280;41454;53.396;-1.510;2022-12-07T08:10:32;100854.22;;;-1.23;100.00
55592;BME280;41454;53.396;-1.510;2022-12-07T08:13:00;100855.78;;;-0.63;100.00
55592;BME280;41454;53.396;-1.510;2022-12-07T08:15:30;100851.71;;;-0.53;100.00
55592;BME280;41454;53.396;-1.510;2022-12-07T08:17:57;100851.18;;;-0.50;100.00
55592;BME280;41454;53.396;-1.510;2022-12-07T08:20:25;100853.17;;;-0.60;100.00
55592;BME280;41454;53.396;-1.510;2022-12-07T08:22:52;100848.51;;;-0.22;100.00
55592;BME280;41454;53.396;-1.510;2022-12-07T08:25:20;100848.16;;;0.05;100.00
55592;BME280;41454;53.396;-1.510;2022-12-07T08:27:47;100851.33;;;0.47;100.00
55592;BME280;41454;53.396;-1.510;2022-12-07T08:30:15;100857.40;;;0.21;100.00
55592;BME280;41454;53.396;-1.510;2022-12-07T08:32:43;100856.77;;;0.53;100.00
55592;BME280;41454;53.396;-1.510;2022-12-07T08:35:12;100857.80;;;1.20;100.00
55592;BME280;41454;53.396;-1.510;2022-12-07T08:37:40;100850.33;;;1.25;100.00
55592;BME280;41454;53.396;-1.510;2022-12-07T08:40:09;100851.01;;;0.54;100.00
55592;BME280;41454;53.396;-1.510;2022-12-07T08:42:36;100849.89;;;0.20;100.00
55592;BME280;41454;53.396;-1.510;2022-12-07T08:45:04;100850.36;;;0.32;100.00
55592;BME280;41454;53.396;-1.510;2022-12-07T08:47:32;100854.15;;;0.42;100.00
55592;BME280;41454;53.396;-1.510;2022-12-07T08:50:01;100855.74;;;0.33;100.00
55592;BME280;41454;53.396;-1.510;2022-12-07T08:52:29;100857.32;;;0.81;100.00
55592;BME280;41454;53.396;-1.510;2022-12-07T08:54:57;100859.54;;;0.96;100.00
55592;BME280;41454;53.396;-1.510;2022-12-07T08:57:27;100854.84;;;1.03;100.00
55592;BME280;41454;53.396;-1.510;2022-12-07T08:59:55;100847.27;;;0.66;100.00
55592;BME280;41454;53.396;-1.510;2022-12-07T09:02:22;100848.59;;;0.70;100.00
55592;BME280;41454;53.396;-1.510;2022-12-07T09:04:49;100852.46;;;0.61;100.00
55592;BME280;41454;53.396;-1.510;2022-12-07T09:07:17;100851.65;;;1.14;100.00
55592;BME280;41454;53.396;-1.510;2022-12-07T09:09:44;100846.67;;;1.22;100.00
55592;BME280;41454;53.396;-1.510;2022-12-07T09:12:11;100847.28;;;1.41;100.00
55592;BME280;41454;53.396;-1.510;2022-12-07T09:14:38;100842.34;;;0.99;100.00
55592;BME280;41454;53.396;-1.510;2022-12-07T09:17:06;100840.91;;;1.14;100.00
55592;BME280;41454;53.396;-1.510;2022-12-07T09:19:34;100839.30;;;0.77;100.00
55592;BME280;41454;53.396;-1.510;2022-12-07T09:22:02;100829.98;;;1.24;100.00
55592;BME280;41454;53.396;-1.510;2022-12-07T09:24:29;100835.60;;;1.12;100.00
55592;BME280;41454;53.396;-1.510;2022-12-07T09:26:57;100829.12;;;1.06;100.00
55592;BME280;41454;53.396;-1.510;2022-12-07T09:29:25;100832.56;;;1.39;100.00
55592;BME280;41454;53.396;-1.510;2022-12-07T09:31:52;100834.34;;;0.93;100.00
55592;BME280;41454;53.396;-1.510;2022-12-07T09:34:20;100835.53;;;1.09;100.00
55592;BME280;41454;53.396;-1.510;2022-12-07T09:36:47;100835.22;;;1.13;100.00
55592;BME280;41454;53.396;-1.510;2022-12-07T09:39:14;100832.62;;;1.05;100.00
55592;BME280;41454;53.396;-1.510;2022-12-07T09:41:43;100835.97;;;0.84;100.00
55592;BME280;41454;53.396;-1.510;2022-12-07T09:44:14;100833.66;;;1.17;100.00
55592;BME280;41454;53.396;-1.510;2022-12-07T09:46:45;100837.45;;;0.76;100.00
55592;BME280;41454;53.396;-1.510;2022-12-07T09:49:16;100833.39;;;0.59;100.00
55592;BME280;41454;53.396;-1.510;2022-12-07T09:51:44;100834.00;;;1.12;100.00
55592;BME280;41454;53.396;-1.510;2022-12-07T09:54:14;100833.46;;;1.05;100.00
55592;BME280;41454;53.396;-1.510;2022-12-07T09:56:42;100836.54;;;1.30;100.00
55592;BME280;41454;53.396;-1.510;2022-12-07T09:59:15;100835.13;;;1.26;100.00
55592;BME280;41454;53.396;-1.510;2022-12-07T10:01:43;100835.43;;;1.05;100.00
55592;BME280;41454;53.396;-1.510;2022-12-07T10:04:15;100836.27;;;1.69;100.00
55592;BME280;41454;53.396;-1.510;2022-12-07T10:06:44;100837.11;;;1.40;100.00
55592;BME280;41454;53.396;-1.510;2022-12-07T10:09:13;100840.84;;;1.82;100.00
55592;BME280;41454;53.396;-1.510;2022-12-07T10:12:12;100841.49;;;2.32;100.00
55592;BME280;41454;53.396;-1.510;2022-12-07T10:14:53;100832.87;;;2.05;100.00
55592;BME280;41454;53.396;-1.510;2022-12-07T10:17:32;100832.16;;;0.92;100.00
55592;BME280;41454;53.396;-1.510;2022-12-07T10:20:32;100826.50;;;1.10;100.00
55592;BME280;41454;53.396;-1.510;2022-12-07T10:23:01;100829.43;;;0.28;100.00
55592;BME280;41454;53.396;-1.510;2022-12-07T10:25:32;100825.38;;;1.10;100.00
55592;BME280;41454;53.396;-1.510;2022-12-07T10:28:03;100823.47;;;1.17;100.00
55592;BME280;41454;53.396;-1.510;2022-12-07T10:30:48;100818.12;;;0.89;100.00
55592;BME280;41454;53.396;-1.510;2022-12-07T10:33:29;100819.76;;;1.46;100.00
55592;BME280;41454;53.396;-1.510;2022-12-07T10:35:57;100817.68;;;0.86;100.00
55592;BME280;41454;53.396;-1.510;2022-12-07T10:38:26;100814.96;;;1.17;100.00
55592;BME280;41454;53.396;-1.510;2022-12-07T10:41:04;100814.82;;;0.63;100.00
55592;BME280;41454;53.396;-1.510;2022-12-07T10:43:32;100811.93;;;0.56;100.00
55592;BME280;41454;53.396;-1.510;2022-12-07T10:46:14;100816.70;;;-0.07;100.00
55592;BME280;41454;53.396;-1.510;2022-12-07T10:48:58;100809.11;;;-0.11;100.00
55592;BME280;41454;53.396;-1.510;2022-12-07T10:51:38;100805.00;;;-0.14;100.00
55592;BME280;41454;53.396;-1.510;2022-12-07T10:54:12;100799.80;;;0.11;100.00
55592;BME280;41454;53.396;-1.510;2022-12-07T10:56:53;100794.00;;;0.01;100.00
55592;BME280;41454;53.396;-1.510;2022-12-07T10:59:39;100794.68;;;0.22;100.00
55592;BME280;41454;53.396;-1.510;2022-12-07T11:02:24;100785.35;;;0.36;100.00
55592;BME280;41454;53.396;-1.510;2022-12-07T11:05:02;100777.78;;;0.23;100.00
55592;BME280;41454;53.396;-1.510;2022-12-07T11:07:42;100779.65;;;0.54;100.00
55592;BME280;41454;53.396;-1.510;2022-12-07T11:10:14;100779.61;;;1.06;100.00
55592;BME280;41454;53.396;-1.510;2022-12-07T11:12:54;100773.42;;;0.54;100.00
55592;BME280;41454;53.396;-1.510;2022-12-07T11:15:26;100771.90;;;0.29;100.00
55592;BME280;41454;53.396;-1.510;2022-12-07T11:18:03;100765.55;;;0.08;100.00
55592;BME280;41454;53.396;-1.510;2022-12-07T11:20:42;100766.02;;;-0.32;100.00
55592;BME280;41454;53.396;-1.510;2022-12-07T11:23:18;100762.83;;;-0.12;100.00
55592;BME280;41454;53.396;-1.510;2022-12-07T11:25:54;100754.69;;;0.69;100.00
55592;BME280;41454;53.396;-1.510;2022-12-07T11:28:39;100751.85;;;0.71;100.00
55592;BME280;41454;53.396;-1.510;2022-12-07T11:31:16;100756.48;;;0.29;100.00
55592;BME280;41454;53.396;-1.510;2022-12-07T11:33:47;100749.38;;;0.85;100.00
55592;BME280;41454;53.396;-1.510;2022-12-07T11:36:31;100746.33;;;1.48;100.00
55592;BME280;41454;53.396;-1.510;2022-12-07T11:39:02;100743.86;;;1.66;100.00
55592;BME280;41454;53.396;-1.510;2022-12-07T11:41:34;100744.98;;;1.80;100.00
55592;BME280;41454;53.396;-1.510;2022-12-07T11:44:06;100743.16;;;2.65;100.00
55592;BME280;41454;53.396;-1.510;2022-12-07T11:46:44;100739.46;;;1.61;100.00
55592;BME280;41454;53.396;-1.510;2022-12-07T11:49:17;100735.49;;;1.66;100.00
55592;BME280;41454;53.396;-1.510;2022-12-07T11:51:49;100728.79;;;1.82;100.00
55592;BME280;41454;53.396;-1.510;2022-12-07T11:54:23;100722.98;;;1.74;100.00
55592;BME280;41454;53.396;-1.510;2022-12-07T11:56:51;100713.12;;;2.23;100.00
55592;BME280;41454;53.396;-1.510;2022-12-07T11:59:23;100707.82;;;2.37;100.00
55592;BME280;41454;53.396;-1.510;2022-12-07T12:01:56;100699.44;;;2.40;100.00
55592;BME280;41454;53.396;-1.510;2022-12-07T12:04:38;100697.96;;;2.19;100.00
55592;BME280;41454;53.396;-1.510;2022-12-07T12:07:16;100690.96;;;2.13;100.00
55592;BME280;41454;53.396;-1.510;2022-12-07T12:09:48;100691.94;;;2.25;100.00
55592;BME280;41454;53.396;-1.510;2022-12-07T12:12:45;100695.34;;;1.70;100.00
55592;BME280;41454;53.396;-1.510;2022-12-07T12:15:26;100691.08;;;1.35;100.00
55592;BME280;41454;53.396;-1.510;2022-12-07T12:18:06;100680.18;;;1.79;100.00
55592;BME280;41454;53.396;-1.510;2022-12-07T12:20:41;100676.26;;;1.40;100.00
55592;BME280;41454;53.396;-1.510;2022-12-07T12:23:15;100671.47;;;2.05;100.00
55592;BME280;41454;53.396;-1.510;2022-12-07T12:25:46;100670.55;;;2.33;100.00
55592;BME280;41454;53.396;-1.510;2022-12-07T12:28:23;100670.45;;;2.47;100.00
55592;BME280;41454;53.396;-1.510;2022-12-07T12:31:11;100664.10;;;2.90;100.00
55592;BME280;41454;53.396;-1.510;2022-12-07T12:33:43;100668.42;;;2.04;100.00
55592;BME280;41454;53.396;-1.510;2022-12-07T12:36:24;100664.59;;;1.82;100.00
55592;BME280;41454;53.396;-1.510;2022-12-07T12:39:08;100661.85;;;1.62;100.00
55592;BME280;41454;53.396;-1.510;2022-12-07T12:42:18;100661.62;;;2.46;100.00
55592;BME280;41454;53.396;-1.510;2022-12-07T12:45:19;100649.59;;;2.23;100.00
55592;BME280;41454;53.396;-1.510;2022-12-07T12:48:03;100639.92;;;1.98;100.00
55592;BME280;41454;53.396;-1.510;2022-12-07T12:50:32;100630.95;;;2.47;100.00
55592;BME280;41454;53.396;-1.510;2022-12-07T12:53:35;100633.29;;;2.55;99.30
55592;BME280;41454;53.396;-1.510;2022-12-07T12:56:29;100631.85;;;2.76;98.03